This is the latest recevied weather packets stored in our database for station/object EW7404. If no packets are shown the sender has not sent any weather packets the latest 10 day(s).
| Time | Temp. | Humidity | Pressure | Rain* | Wind** | Luminosity | Snow |
|---|---|---|---|---|---|---|---|
| 1778294415 | 1.11° C | 100% | 947.9 hPa | 0 mm | - | - | - |
| 1778292615 | 1.11° C | 100% | 947.9 hPa | 65.02 mm | - | - | - |
| 1778292015 | 1.11° C | 100% | 948 hPa | 65.02 mm | - | - | - |
| 1778291415 | 1.67° C | 97% | 948 hPa | 65.02 mm | - | - | - |
| 1778290815 | 1.67° C | 96% | 947.9 hPa | 65.02 mm | - | - | - |
| 1778290256 | 1.67° C | 98% | 947.9 hPa | 0 mm | - | - | - |
| 1778289035 | 1.67° C | 95% | 947.9 hPa | 0 mm | - | - | - |
| 1778287835 | 2.22° C | 94% | 947.8 hPa | 0 mm | - | - | - |
| 1778286635 | 1.67° C | 98% | 948.1 hPa | 0 mm | - | - | - |
| 1778286015 | 1.67° C | 97% | 948 hPa | 0 mm | - | - | - |
| 1778281815 | 1.67° C | 100% | 948.6 hPa | 5.33 mm | - | - | - |
| 1778280015 | 1.67° C | 100% | 948.8 hPa | 5.33 mm | - | - | - |
| 1778273415 | 1.67° C | 100% | 949.4 hPa | 0 mm | - | - | - |
| 1778260814 | 1.67° C | 96% | 948.6 hPa | 0 mm | - | - | - |
| 1778259615 | 2.22° C | 95% | 948.8 hPa | 0 mm | - | - | - |
| 1778255415 | 2.22° C | 95% | 948.9 hPa | 0 mm | - | - | - |
| 1778254815 | 2.22° C | 95% | 948.9 hPa | 0 mm | - | - | - |
| 1778253635 | 2.78° C | 88% | 949 hPa | 6.1 mm | - | - | - |
| 1778253055 | 2.78° C | 92% | 949.1 hPa | 6.1 mm | - | - | - |
| 1778248816 | 2.78° C | 100% | 949.9 hPa | 0 mm | - | - | - |
| 1778244615 | 3.33° C | 82% | 950.8 hPa | 0 mm | - | - | - |
| 1778241015 | 3.33° C | 79% | 951.7 hPa | 0 mm | - | - | - |
| 1778236816 | 5° C | 68% | 952.1 hPa | 0 mm | - | - | - |
| 1778236215 | 5° C | 62% | 952.1 hPa | 0 mm | - | - | - |
| 1778226915 | 6.11° C | 64% | 952.8 hPa | 0 mm | - | - | - |
* Rain latest hour (hover to see other rain measurements)
** Current wind speed in m/s (hover to see current wind gust speed)